createdAt,value
2019-03-13T00:00:37.613Z,98818.28
2019-03-13T00:03:09.085Z,98841.70
2019-03-13T00:05:40.168Z,98879.30
2019-03-13T00:08:11.407Z,98876.50
2019-03-13T00:10:42.301Z,98881.48
2019-03-13T00:13:13.217Z,98885.66
2019-03-13T00:15:44.484Z,98894.16
2019-03-13T00:18:15.341Z,98909.23
2019-03-13T00:20:46.171Z,98925.63
2019-03-13T00:23:16.953Z,98927.49
2019-03-13T00:25:48.157Z,98924.77
2019-03-13T00:28:19.487Z,98937.82
2019-03-13T00:30:50.894Z,98939.97
2019-03-13T00:33:22.921Z,98961.02
2019-03-13T00:35:53.905Z,98964.08
2019-03-13T00:38:24.914Z,98976.59
2019-03-13T00:40:55.821Z,98974.85
2019-03-13T00:43:26.826Z,98980.98
2019-03-13T00:45:57.886Z,98992.39
2019-03-13T00:48:28.662Z,98994.27
2019-03-13T00:50:59.416Z,99004.73
2019-03-13T00:53:30.525Z,99009.80
2019-03-13T00:56:01.499Z,99014.29
2019-03-13T00:58:32.298Z,99030.19
2019-03-13T01:01:11.388Z,99041.72
2019-03-13T01:03:45.857Z,99041.59
2019-03-13T01:06:20.833Z,99043.11
2019-03-13T01:08:51.611Z,99048.43
2019-03-13T01:11:22.751Z,99054.20
2019-03-13T01:13:53.854Z,99060.19
2019-03-13T01:16:24.917Z,99071.48
2019-03-13T01:18:55.927Z,99070.76
2019-03-13T01:21:27.507Z,99083.93
2019-03-13T01:23:58.576Z,99090.17
2019-03-13T01:26:29.351Z,99105.70
2019-03-13T01:29:00.110Z,99107.09
2019-03-13T01:31:56.071Z,99117.67
2019-03-13T01:34:30.885Z,99119.52
2019-03-13T01:37:01.718Z,99128.20
2019-03-13T01:39:33.000Z,99131.14
2019-03-13T01:42:04.019Z,99139.23
2019-03-13T01:44:35.298Z,99139.14
2019-03-13T01:47:06.318Z,99147.04
2019-03-13T01:49:37.057Z,99148.28
2019-03-13T01:52:07.810Z,99155.05
2019-03-13T01:54:38.777Z,99157.78
2019-03-13T01:57:09.526Z,99167.98
2019-03-13T01:59:40.492Z,99170.09
2019-03-13T02:02:11.242Z,99170.92
2019-03-13T02:04:42.370Z,99173.23
2019-03-13T02:07:13.125Z,99173.29
2019-03-13T02:09:44.221Z,99177.95
2019-03-13T02:12:15.568Z,99184.32
2019-03-13T02:14:46.716Z,99184.23
2019-03-13T02:17:17.464Z,99183.73
2019-03-13T02:19:49.831Z,99186.70
2019-03-13T02:22:20.859Z,99196.34
2019-03-13T02:24:54.187Z,99195.63
2019-03-13T02:27:24.217Z,99199.37
2019-03-13T02:29:55.209Z,99189.03
2019-03-13T02:32:26.253Z,99195.49
2019-03-13T02:34:57.377Z,99191.56
2019-03-13T02:37:28.157Z,99191.61
2019-03-13T02:39:58.899Z,99203.17
2019-03-13T02:42:29.889Z,99205.38
2019-03-13T02:45:00.697Z,99203.77
2019-03-13T02:47:31.672Z,99197.17
2019-03-13T02:50:02.507Z,99211.30
2019-03-13T02:52:33.581Z,99208.97
2019-03-13T02:55:04.619Z,99207.69
2019-03-13T02:57:35.630Z,99210.27
2019-03-13T03:00:09.317Z,99208.95
2019-03-13T03:02:52.246Z,99212.83
2019-03-13T03:05:24.254Z,99213.66
2019-03-13T03:07:55.347Z,99212.85
2019-03-13T03:10:26.397Z,99218.25
2019-03-13T03:12:57.920Z,99223.78
2019-03-13T03:15:29.035Z,99228.03
2019-03-13T03:17:59.859Z,99227.88
2019-03-13T03:20:31.160Z,99231.61
2019-03-13T03:23:02.225Z,99225.27
2019-03-13T03:25:34.606Z,99223.09
2019-03-13T03:28:05.945Z,99236.56
2019-03-13T03:30:37.230Z,99237.37
2019-03-13T03:33:08.011Z,99240.27
2019-03-13T03:35:39.257Z,99235.22
2019-03-13T03:38:10.305Z,99236.23
2019-03-13T03:40:41.399Z,99232.70
2019-03-13T03:43:12.362Z,99243.26
2019-03-13T03:45:43.477Z,99242.27
2019-03-13T03:48:14.309Z,99249.69
2019-03-13T03:50:45.020Z,99245.75
2019-03-13T03:53:16.617Z,99239.29
2019-03-13T03:55:47.843Z,99240.76
2019-03-13T03:58:18.987Z,99230.55
2019-03-13T04:00:50.008Z,99228.02
2019-03-13T04:03:21.180Z,99233.77
2019-03-13T04:05:52.005Z,99233.38
2019-03-13T04:08:23.096Z,99233.22
2019-03-13T04:10:54.097Z,99236.18
2019-03-13T04:13:25.699Z,99229.72
2019-03-13T04:15:57.935Z,99221.81
2019-03-13T04:18:28.740Z,99217.73
2019-03-13T04:20:59.507Z,99207.12
2019-03-13T04:23:31.052Z,99204.38
2019-03-13T04:26:01.889Z,99202.93
2019-03-13T04:28:32.840Z,99202.22
2019-03-13T04:31:03.773Z,99205.39
2019-03-13T04:33:35.140Z,99207.39
2019-03-13T04:36:06.185Z,99210.73
2019-03-13T04:38:36.930Z,99212.97
2019-03-13T04:41:07.693Z,99229.96
2019-03-13T04:43:38.686Z,99236.75
2019-03-13T04:46:09.543Z,99253.83
2019-03-13T04:48:40.600Z,99269.02
2019-03-13T04:51:11.585Z,99272.73
2019-03-13T04:53:42.433Z,99281.84
2019-03-13T04:56:13.200Z,99290.05
2019-03-13T04:58:44.249Z,99286.13
2019-03-13T05:01:15.144Z,99279.43
2019-03-13T05:03:45.903Z,99292.22
2019-03-13T05:06:21.677Z,99296.76
2019-03-13T05:09:16.396Z,99292.22
2019-03-13T05:11:47.143Z,99295.29
2019-03-13T05:14:18.252Z,99298.63
2019-03-13T05:16:49.221Z,99289.84
2019-03-13T05:19:20.277Z,99282.30
2019-03-13T05:21:51.095Z,99286.84
2019-03-13T05:24:22.169Z,99282.17
2019-03-13T05:26:52.917Z,99287.67
2019-03-13T05:29:24.491Z,99289.42
2019-03-13T05:31:55.481Z,99279.80
2019-03-13T05:34:26.620Z,99285.00
2019-03-13T05:36:57.361Z,99281.27
2019-03-13T05:39:28.195Z,99281.77
2019-03-13T05:41:58.931Z,99278.40
2019-03-13T05:44:29.811Z,99275.02
2019-03-13T05:47:00.566Z,99273.78
2019-03-13T05:49:31.309Z,99275.23
2019-03-13T05:52:02.291Z,99273.32
2019-03-13T05:54:33.252Z,99272.90
2019-03-13T05:57:04.162Z,99275.59
2019-03-13T05:59:35.511Z,99277.77
2019-03-13T06:02:06.262Z,99279.00
2019-03-13T06:04:37.004Z,99274.25
2019-03-13T06:07:07.995Z,99264.16
2019-03-13T06:09:38.744Z,99263.03
2019-03-13T06:12:09.721Z,99266.91
2019-03-13T06:14:40.536Z,99266.60
2019-03-13T06:17:11.765Z,99285.30
2019-03-13T06:19:42.998Z,99287.39
2019-03-13T06:22:13.985Z,99285.80
2019-03-13T06:24:44.955Z,99288.97
2019-03-13T06:27:16.228Z,99292.97
2019-03-13T06:29:48.590Z,99318.06
2019-03-13T06:32:19.582Z,99303.83
2019-03-13T06:34:50.583Z,99299.22
2019-03-13T06:37:21.637Z,99300.47
2019-03-13T06:39:52.384Z,99310.40
2019-03-13T06:42:23.402Z,99306.73
2019-03-13T06:44:54.633Z,99307.11
2019-03-13T06:47:25.590Z,99304.47
2019-03-13T06:49:56.575Z,99312.13
2019-03-13T06:52:27.653Z,99300.91
2019-03-13T06:54:58.869Z,99327.53
2019-03-13T06:57:29.955Z,99315.30
2019-03-13T07:00:19.353Z,99308.19
2019-03-13T07:02:59.114Z,99307.41
2019-03-13T07:05:35.340Z,99311.33
2019-03-13T07:08:14.709Z,99315.28
2019-03-13T07:10:52.697Z,99304.59
2019-03-13T07:13:41.226Z,99319.06
2019-03-13T07:16:40.136Z,99315.63
2019-03-13T07:19:19.478Z,99318.57
2019-03-13T07:22:05.517Z,99309.68
2019-03-13T07:24:53.818Z,99308.05
2019-03-13T07:27:33.955Z,99311.89
2019-03-13T07:30:23.308Z,99300.28
2019-03-13T07:33:25.584Z,99289.77
2019-03-13T07:36:15.340Z,99298.90
2019-03-13T07:39:04.302Z,99293.88
2019-03-13T07:41:51.519Z,99298.76
2019-03-13T07:44:41.878Z,99309.13
2019-03-13T07:47:32.916Z,99302.02
2019-03-13T07:50:25.874Z,99301.42
2019-03-13T07:53:16.238Z,99315.17
2019-03-13T07:56:05.704Z,99297.23
2019-03-13T07:59:02.661Z,99309.70
2019-03-13T08:01:43.648Z,99318.17
2019-03-13T08:04:30.921Z,99312.59
2019-03-13T08:07:23.951Z,99322.43
2019-03-13T08:10:12.946Z,99332.17
2019-03-13T08:12:55.543Z,99354.80
2019-03-13T08:15:32.924Z,99356.80
2019-03-13T08:18:14.570Z,99349.30
2019-03-13T08:20:57.443Z,99350.34
2019-03-13T08:23:47.765Z,99337.02
2019-03-13T08:26:34.616Z,99336.23
2019-03-13T08:29:29.281Z,99335.39
2019-03-13T08:32:08.760Z,99347.23
2019-03-13T08:34:46.010Z,99347.63
2019-03-13T08:37:32.289Z,99328.52
2019-03-13T08:40:09.402Z,99330.27
2019-03-13T08:42:48.124Z,99337.91
2019-03-13T08:45:38.014Z,99317.42
2019-03-13T08:48:17.826Z,99316.68
2019-03-13T08:51:11.171Z,99312.86
2019-03-13T08:54:10.022Z,99311.84
2019-03-13T08:56:53.449Z,99305.34
2019-03-13T08:59:58.758Z,99298.14
2019-03-13T09:02:47.548Z,99303.38
2019-03-13T09:05:37.422Z,99294.05
2019-03-13T09:08:30.736Z,99293.36
2019-03-13T09:11:38.438Z,99304.67
2019-03-13T09:14:21.818Z,99292.01
2019-03-13T09:17:20.882Z,99302.64
2019-03-13T09:20:20.274Z,99289.23
2019-03-13T09:23:00.829Z,99278.38
2019-03-13T09:25:49.535Z,99283.28
2019-03-13T09:28:39.372Z,99266.78
2019-03-13T09:31:29.624Z,99265.81
2019-03-13T09:34:16.417Z,99268.55
2019-03-13T09:37:09.245Z,99262.77
2019-03-13T09:39:48.438Z,99255.34
2019-03-13T09:42:41.298Z,99265.86
2019-03-13T09:45:31.135Z,99265.61
2019-03-13T09:48:19.400Z,99257.55
2019-03-13T09:50:57.661Z,99258.80
2019-03-13T09:53:50.534Z,99261.39
2019-03-13T09:56:40.641Z,99250.55
2019-03-13T09:59:24.263Z,99251.63
2019-03-13T10:02:12.703Z,99247.98
2019-03-13T10:04:59.701Z,99259.63
2019-03-13T10:07:39.179Z,99247.95
2019-03-13T10:10:20.896Z,99253.72
2019-03-13T10:13:17.098Z,99260.33
2019-03-13T10:15:52.791Z,99256.72
2019-03-13T10:18:33.742Z,99249.05
2019-03-13T10:21:11.053Z,99267.98
2019-03-13T10:23:49.952Z,99260.22
2019-03-13T10:26:38.113Z,99257.02
2019-03-13T10:29:16.041Z,99260.69
2019-03-13T10:32:04.986Z,99267.39
2019-03-13T10:35:07.166Z,99264.95
2019-03-13T10:37:56.430Z,99279.41
2019-03-13T10:40:49.345Z,99253.59
2019-03-13T10:43:33.218Z,99256.70
2019-03-13T10:46:25.988Z,99262.99
2019-03-13T10:49:03.578Z,99257.68
2019-03-13T10:51:53.579Z,99256.33
2019-03-13T10:54:40.374Z,99251.23
2019-03-13T10:57:35.937Z,99244.98
2019-03-13T11:00:23.651Z,99238.49
2019-03-13T11:03:01.272Z,99229.48
2019-03-13T11:05:54.146Z,99237.80
2019-03-13T11:08:55.795Z,99239.12
2019-03-13T11:11:45.788Z,99252.80
2019-03-13T11:14:35.798Z,99257.03
2019-03-13T11:17:30.107Z,99257.14
2019-03-13T11:20:17.106Z,99248.45
2019-03-13T11:23:25.467Z,99234.33
2019-03-13T11:26:30.439Z,99220.38
2019-03-13T11:29:10.259Z,99224.63
2019-03-13T11:31:49.181Z,99205.08
2019-03-13T11:34:28.336Z,99203.09
2019-03-13T11:37:24.396Z,99203.39
2019-03-13T11:40:12.537Z,99194.42
2019-03-13T11:43:01.156Z,99191.53
2019-03-13T11:46:00.245Z,99195.28
2019-03-13T11:48:44.987Z,99183.86
2019-03-13T11:51:36.894Z,99191.25
2019-03-13T11:54:26.648Z,99197.62
2019-03-13T11:57:19.344Z,99211.52
2019-03-13T12:00:08.246Z,99186.95
2019-03-13T12:02:48.965Z,99193.50
2019-03-13T12:05:45.307Z,99188.22
2019-03-13T12:08:35.292Z,99160.85
2019-03-13T12:11:12.113Z,99157.28
2019-03-13T12:14:01.544Z,99165.11
2019-03-13T12:16:56.150Z,99162.89
2019-03-13T12:19:41.448Z,99139.53
2019-03-13T12:22:49.397Z,99152.99
2019-03-13T12:25:51.152Z,99153.55
2019-03-13T12:28:40.934Z,99151.75
2019-03-13T12:31:29.207Z,99145.73
2019-03-13T12:34:11.011Z,99147.65
2019-03-13T12:37:15.719Z,99124.92
2019-03-13T12:39:59.401Z,99116.98
2019-03-13T12:42:48.156Z,99111.09
2019-03-13T12:45:30.185Z,99117.22
2019-03-13T12:48:27.699Z,99123.22
2019-03-13T12:51:25.752Z,99105.56
2019-03-13T12:54:15.765Z,99107.02
2019-03-13T12:57:05.883Z,99111.67
2019-03-13T13:00:04.895Z,99110.38
2019-03-13T13:02:54.860Z,99108.78
2019-03-13T13:05:37.475Z,99093.22
2019-03-13T13:08:26.252Z,99087.69
2019-03-13T13:11:22.474Z,99091.56
2019-03-13T13:14:12.253Z,99092.55
2019-03-13T13:17:08.031Z,99096.22
2019-03-13T13:19:39.099Z,99098.20
2019-03-13T13:22:09.848Z,99084.70
2019-03-13T13:24:43.657Z,99107.09
2019-03-13T13:27:14.483Z,99091.45
2019-03-13T13:29:45.543Z,99087.97
2019-03-13T13:32:16.524Z,99103.61
2019-03-13T13:34:47.337Z,99097.21
2019-03-13T13:37:18.156Z,99083.62
2019-03-13T13:39:49.208Z,99094.72
2019-03-13T13:42:21.232Z,99087.81
2019-03-13T13:44:51.979Z,99092.55
2019-03-13T13:47:22.732Z,99095.59
2019-03-13T13:49:59.521Z,99085.49
2019-03-13T13:52:26.909Z,99090.56
2019-03-13T13:54:57.783Z,99081.23
2019-03-13T13:57:28.538Z,99095.20
2019-03-13T13:59:59.509Z,99094.09
2019-03-13T14:02:30.197Z,99099.42
2019-03-13T14:05:01.176Z,99087.29
2019-03-13T14:07:32.023Z,99101.56
2019-03-13T14:10:03.086Z,99090.07
2019-03-13T14:12:34.522Z,99096.88
2019-03-13T14:15:05.426Z,99089.24
2019-03-13T14:17:36.573Z,99089.49
2019-03-13T14:20:07.744Z,99102.17
2019-03-13T14:22:38.590Z,99092.13
2019-03-13T14:25:09.457Z,99092.94
2019-03-13T14:27:40.448Z,99088.09
2019-03-13T14:30:11.454Z,99093.77
2019-03-13T14:32:42.236Z,99090.34
2019-03-13T14:35:13.176Z,99084.95
2019-03-13T14:37:44.247Z,99097.98
2019-03-13T14:40:15.452Z,99082.95
2019-03-13T14:42:46.501Z,99081.39
2019-03-13T14:45:17.700Z,99081.41
2019-03-13T14:47:48.585Z,99070.79
2019-03-13T14:50:19.410Z,99081.48
2019-03-13T14:52:51.220Z,99079.25
2019-03-13T14:55:21.963Z,99076.44
2019-03-13T14:57:52.792Z,99075.17
2019-03-13T15:00:23.872Z,99079.06
2019-03-13T15:02:54.773Z,99077.16
2019-03-13T15:05:25.520Z,99080.22
2019-03-13T15:07:56.581Z,99084.69
2019-03-13T15:10:27.318Z,99089.54
2019-03-13T15:12:58.307Z,99069.13
2019-03-13T15:15:29.046Z,99071.48
2019-03-13T15:18:00.409Z,99078.03
2019-03-13T15:20:31.252Z,99068.49
2019-03-13T15:23:02.334Z,99074.28
2019-03-13T15:25:33.472Z,99067.09
2019-03-13T15:28:04.385Z,99073.93
2019-03-13T15:30:35.233Z,99067.20
2019-03-13T15:33:06.034Z,99058.02
2019-03-13T15:35:37.568Z,99051.89
2019-03-13T15:38:08.445Z,99057.73
2019-03-13T15:40:39.254Z,99052.00
2019-03-13T15:43:10.305Z,99048.11
2019-03-13T15:45:41.704Z,99045.41
2019-03-13T15:48:12.537Z,99043.21
2019-03-13T15:50:43.276Z,99056.64
2019-03-13T15:53:14.333Z,99058.13
2019-03-13T15:55:45.141Z,99051.78
2019-03-13T15:58:16.149Z,99075.47
2019-03-13T16:00:47.119Z,99052.39
2019-03-13T16:03:17.876Z,99037.09
2019-03-13T16:05:49.393Z,99043.43
2019-03-13T16:08:20.686Z,99039.08
2019-03-13T16:10:51.421Z,99047.10
2019-03-13T16:13:22.196Z,99044.40
2019-03-13T16:15:53.085Z,99045.23
2019-03-13T16:18:23.912Z,99034.25
2019-03-13T16:20:54.938Z,99035.11
2019-03-13T16:23:25.939Z,99031.91
2019-03-13T16:25:56.759Z,99023.88
2019-03-13T16:28:27.733Z,99023.77
2019-03-13T16:30:58.660Z,99046.02
2019-03-13T16:33:30.396Z,99051.48
2019-03-13T16:36:01.622Z,99044.39
2019-03-13T16:38:32.390Z,99041.34
2019-03-13T16:41:03.225Z,99042.88
2019-03-13T16:43:34.244Z,99038.41
2019-03-13T16:46:05.308Z,99035.22
2019-03-13T16:48:36.304Z,99040.41
2019-03-13T16:51:07.269Z,99032.98
2019-03-13T16:53:38.029Z,99029.67
2019-03-13T16:56:09.047Z,99041.56
2019-03-13T16:58:40.048Z,99034.72
2019-03-13T17:01:10.791Z,99051.45
2019-03-13T17:03:41.861Z,99038.10
2019-03-13T17:06:12.665Z,99050.38
2019-03-13T17:08:43.416Z,99047.78
2019-03-13T17:11:14.631Z,99051.45
2019-03-13T17:13:46.001Z,99048.14
2019-03-13T17:16:17.667Z,99055.59
2019-03-13T17:18:48.537Z,99055.23
2019-03-13T17:21:19.892Z,99055.23
2019-03-13T17:23:51.117Z,99050.88
2019-03-13T17:26:22.824Z,99053.83
2019-03-13T17:28:53.782Z,99049.58
2019-03-13T17:31:24.786Z,99045.95
2019-03-13T17:33:55.767Z,99048.28
2019-03-13T17:36:26.755Z,99046.30
2019-03-13T17:38:57.755Z,99052.89
2019-03-13T17:41:28.718Z,99058.06
2019-03-13T17:43:59.474Z,99052.20
2019-03-13T17:46:30.465Z,99054.06
2019-03-13T17:49:01.455Z,99070.94
2019-03-13T17:51:32.325Z,99077.55
2019-03-13T17:54:03.087Z,99080.03
2019-03-13T17:56:35.112Z,99097.92
2019-03-13T17:59:06.252Z,99108.56
2019-03-13T18:01:36.999Z,99096.78
2019-03-13T18:04:07.983Z,99103.72
2019-03-13T18:06:39.586Z,99091.73
2019-03-13T18:09:10.430Z,99088.07
2019-03-13T18:11:43.538Z,99085.84
2019-03-13T18:14:14.882Z,99080.06
2019-03-13T18:16:45.630Z,99090.20
2019-03-13T18:19:16.372Z,99080.09
2019-03-13T18:21:47.641Z,99083.61
2019-03-13T18:24:18.633Z,99084.77
2019-03-13T18:26:49.401Z,99084.31
2019-03-13T18:29:20.213Z,99084.20
2019-03-13T18:31:51.278Z,99079.85
2019-03-13T18:34:22.087Z,99090.53
2019-03-13T18:36:54.347Z,99093.26
2019-03-13T18:39:25.488Z,99094.55
2019-03-13T18:41:56.337Z,99109.02
2019-03-13T18:44:27.416Z,99100.45
2019-03-13T18:46:58.212Z,99110.43
2019-03-13T18:49:29.033Z,99086.91
2019-03-13T18:52:00.217Z,99104.55
2019-03-13T18:54:31.553Z,99106.06
2019-03-13T18:57:02.947Z,99117.02
2019-03-13T18:59:38.037Z,99112.76
2019-03-13T19:02:07.980Z,99114.05
2019-03-13T19:04:39.123Z,99113.92
2019-03-13T19:07:10.068Z,99113.66
2019-03-13T19:09:40.971Z,99118.73
2019-03-13T19:12:12.232Z,99123.76
2019-03-13T19:14:43.785Z,99136.27
2019-03-13T19:17:14.864Z,99144.65
2019-03-13T19:19:45.869Z,99133.59
2019-03-13T19:22:17.541Z,99143.98
2019-03-13T19:24:50.062Z,99139.50
2019-03-13T19:27:20.972Z,99154.03
2019-03-13T19:29:52.262Z,99156.83
2019-03-13T19:32:23.011Z,99158.50
2019-03-13T19:34:56.415Z,99162.46
2019-03-13T19:37:27.989Z,99155.08
2019-03-13T19:39:58.882Z,99160.80
2019-03-13T19:42:30.110Z,99161.08
2019-03-13T19:45:01.241Z,99163.66
2019-03-13T19:47:32.472Z,99165.85
2019-03-13T19:50:03.803Z,99170.19
2019-03-13T19:52:36.170Z,99168.46
2019-03-13T19:55:08.269Z,99164.80
2019-03-13T19:57:40.208Z,99165.63
2019-03-13T20:00:13.590Z,99163.36
2019-03-13T20:02:59.076Z,99193.77
2019-03-13T20:05:18.804Z,99188.58
2019-03-13T20:07:49.606Z,99194.36
2019-03-13T20:10:22.037Z,99188.23
2019-03-13T20:12:52.959Z,99190.66
2019-03-13T20:15:24.403Z,99198.88
2019-03-13T20:17:55.241Z,99203.58
2019-03-13T20:20:26.083Z,99201.22
2019-03-13T20:22:57.872Z,99194.18
2019-03-13T20:25:28.631Z,99196.63
2019-03-13T20:27:59.789Z,99198.75
2019-03-13T20:30:30.665Z,99206.55
2019-03-13T20:33:02.305Z,99222.58
2019-03-13T20:35:36.858Z,99245.51
2019-03-13T20:38:06.788Z,99277.45
2019-03-13T20:40:37.821Z,99270.55
2019-03-13T20:43:08.872Z,99267.27
2019-03-13T20:45:39.873Z,99254.77
2019-03-13T20:48:10.993Z,99247.03
2019-03-13T20:50:41.760Z,99246.67
2019-03-13T20:53:12.833Z,99228.29
2019-03-13T20:55:44.065Z,99223.86
2019-03-13T20:58:15.394Z,99236.77
2019-03-13T21:00:46.239Z,99235.30
2019-03-13T21:03:18.214Z,99231.56
2019-03-13T21:05:49.314Z,99234.06
2019-03-13T21:08:20.382Z,99240.38
2019-03-13T21:10:51.139Z,99220.23
2019-03-13T21:13:21.985Z,99220.04
2019-03-13T21:15:52.783Z,99230.47
2019-03-13T21:18:23.549Z,99236.19
2019-03-13T21:20:54.690Z,99254.03
2019-03-13T21:23:25.444Z,99259.82
2019-03-13T21:25:56.592Z,99267.36
2019-03-13T21:28:27.436Z,99266.79
2019-03-13T21:30:58.742Z,99271.02
2019-03-13T21:33:29.507Z,99269.36
2019-03-13T21:36:00.283Z,99267.80
2019-03-13T21:38:31.401Z,99269.17
2019-03-13T21:41:02.206Z,99265.50
2019-03-13T21:43:33.095Z,99276.91
2019-03-13T21:46:06.561Z,99280.70
2019-03-13T21:48:36.371Z,99289.52
2019-03-13T21:51:07.443Z,99281.98
2019-03-13T21:53:38.556Z,99295.77
2019-03-13T21:56:09.441Z,99293.13
2019-03-13T21:58:40.734Z,99286.57
2019-03-13T22:01:19.841Z,99289.59
2019-03-13T22:03:44.256Z,99302.53
2019-03-13T22:06:27.626Z,99295.55
2019-03-13T22:08:47.859Z,99301.70
2019-03-13T22:11:18.941Z,99298.77
2019-03-13T22:13:49.897Z,99301.24
2019-03-13T22:16:21.189Z,99305.20
2019-03-13T22:18:51.922Z,99304.08
2019-03-13T22:21:22.945Z,99301.86
2019-03-13T22:23:53.773Z,99308.73
2019-03-13T22:26:24.747Z,99308.45
2019-03-13T22:28:55.494Z,99316.45
2019-03-13T22:31:26.259Z,99322.22
2019-03-13T22:33:56.993Z,99322.24
2019-03-13T22:36:28.066Z,99313.94
2019-03-13T22:38:59.126Z,99321.69
2019-03-13T22:41:30.119Z,99329.80
2019-03-13T22:44:02.057Z,99325.54
2019-03-13T22:46:33.304Z,99335.48
2019-03-13T22:49:04.050Z,99341.59
2019-03-13T22:51:35.955Z,99339.00
2019-03-13T22:54:07.048Z,99340.81
2019-03-13T22:56:37.812Z,99346.89
2019-03-13T22:59:08.871Z,99349.12
2019-03-13T23:01:42.874Z,99349.64
2019-03-13T23:04:14.516Z,99356.55
2019-03-13T23:06:45.303Z,99357.77
2019-03-13T23:09:16.500Z,99355.89
2019-03-13T23:11:47.245Z,99358.20
2019-03-13T23:14:18.296Z,99359.38
2019-03-13T23:16:49.233Z,99362.78
2019-03-13T23:19:19.997Z,99360.32
2019-03-13T23:21:51.078Z,99359.66
2019-03-13T23:24:22.059Z,99367.92
2019-03-13T23:26:53.060Z,99367.86
2019-03-13T23:29:23.815Z,99370.88
2019-03-13T23:31:54.804Z,99370.24
2019-03-13T23:34:25.570Z,99373.54
2019-03-13T23:36:56.334Z,99376.87
2019-03-13T23:39:27.087Z,99380.38
2019-03-13T23:41:57.846Z,99382.95
2019-03-13T23:44:29.061Z,99385.59
2019-03-13T23:47:00.054Z,99387.08
2019-03-13T23:49:31.055Z,99375.38
2019-03-13T23:52:02.990Z,99381.45
2019-03-13T23:54:34.034Z,99385.72
2019-03-13T23:57:04.873Z,99390.88
2019-03-13T23:59:35.645Z,99384.89
